sensor_id;sensor_type;location;lat;lon;timestamp;P1;durP1;ratioP1;P2;durP2;ratioP2
16775;SDS011;8505;49.456;8.164;2022-08-19T00:02:19;28.58;;;19.05;;
16775;SDS011;8505;49.456;8.164;2022-08-19T00:04:46;28.45;;;19.38;;
16775;SDS011;8505;49.456;8.164;2022-08-19T00:07:18;29.52;;;19.85;;
16775;SDS011;8505;49.456;8.164;2022-08-19T00:09:47;29.25;;;19.63;;
16775;SDS011;8505;49.456;8.164;2022-08-19T00:12:14;29.38;;;19.92;;
16775;SDS011;8505;49.456;8.164;2022-08-19T00:14:42;25.50;;;18.80;;
16775;SDS011;8505;49.456;8.164;2022-08-19T00:17:10;28.08;;;20.00;;
16775;SDS011;8505;49.456;8.164;2022-08-19T00:19:40;28.73;;;20.08;;
16775;SDS011;8505;49.456;8.164;2022-08-19T00:22:07;25.65;;;19.15;;
16775;SDS011;8505;49.456;8.164;2022-08-19T00:24:36;26.00;;;19.45;;
16775;SDS011;8505;49.456;8.164;2022-08-19T00:27:04;28.70;;;19.88;;
16775;SDS011;8505;49.456;8.164;2022-08-19T00:29:52;26.95;;;19.73;;
16775;SDS011;8505;49.456;8.164;2022-08-19T00:32:19;28.98;;;20.58;;
16775;SDS011;8505;49.456;8.164;2022-08-19T00:34:50;31.40;;;20.10;;
16775;SDS011;8505;49.456;8.164;2022-08-19T00:37:19;30.05;;;20.25;;
16775;SDS011;8505;49.456;8.164;2022-08-19T00:39:49;28.70;;;20.27;;
16775;SDS011;8505;49.456;8.164;2022-08-19T00:42:17;28.67;;;19.73;;
16775;SDS011;8505;49.456;8.164;2022-08-19T00:44:46;30.13;;;20.92;;
16775;SDS011;8505;49.456;8.164;2022-08-19T00:47:14;26.65;;;19.63;;
16775;SDS011;8505;49.456;8.164;2022-08-19T00:49:43;26.20;;;19.65;;
16775;SDS011;8505;49.456;8.164;2022-08-19T00:52:22;27.02;;;19.00;;
16775;SDS011;8505;49.456;8.164;2022-08-19T00:54:55;27.52;;;19.92;;
16775;SDS011;8505;49.456;8.164;2022-08-19T00:57:26;31.30;;;20.35;;
16775;SDS011;8505;49.456;8.164;2022-08-19T00:59:57;26.55;;;19.95;;
16775;SDS011;8505;49.456;8.164;2022-08-19T01:02:29;28.52;;;20.05;;
16775;SDS011;8505;49.456;8.164;2022-08-19T01:04:59;25.90;;;19.58;;
16775;SDS011;8505;49.456;8.164;2022-08-19T01:07:30;25.67;;;19.10;;
16775;SDS011;8505;49.456;8.164;2022-08-19T01:10:04;29.08;;;19.65;;
16775;SDS011;8505;49.456;8.164;2022-08-19T01:12:34;27.10;;;20.08;;
16775;SDS011;8505;49.456;8.164;2022-08-19T01:15:02;27.77;;;19.73;;
16775;SDS011;8505;49.456;8.164;2022-08-19T01:17:31;26.83;;;20.02;;
16775;SDS011;8505;49.456;8.164;2022-08-19T01:19:59;28.85;;;20.38;;
16775;SDS011;8505;49.456;8.164;2022-08-19T01:22:29;28.95;;;20.85;;
16775;SDS011;8505;49.456;8.164;2022-08-19T01:24:59;29.55;;;21.50;;
16775;SDS011;8505;49.456;8.164;2022-08-19T01:27:35;30.60;;;21.30;;
16775;SDS011;8505;49.456;8.164;2022-08-19T01:30:09;29.98;;;21.55;;
16775;SDS011;8505;49.456;8.164;2022-08-19T01:32:40;32.17;;;21.40;;
16775;SDS011;8505;49.456;8.164;2022-08-19T01:35:10;28.90;;;21.38;;
16775;SDS011;8505;49.456;8.164;2022-08-19T01:37:44;29.35;;;20.65;;
16775;SDS011;8505;49.456;8.164;2022-08-19T01:40:13;27.60;;;20.52;;
16775;SDS011;8505;49.456;8.164;2022-08-19T01:42:42;30.08;;;21.23;;
16775;SDS011;8505;49.456;8.164;2022-08-19T01:45:09;31.08;;;21.55;;
16775;SDS011;8505;49.456;8.164;2022-08-19T01:47:37;27.73;;;21.10;;
16775;SDS011;8505;49.456;8.164;2022-08-19T01:50:06;28.67;;;21.10;;
16775;SDS011;8505;49.456;8.164;2022-08-19T01:52:36;33.05;;;21.15;;
16775;SDS011;8505;49.456;8.164;2022-08-19T01:55:06;29.70;;;20.75;;
16775;SDS011;8505;49.456;8.164;2022-08-19T01:57:36;29.05;;;20.77;;
16775;SDS011;8505;49.456;8.164;2022-08-19T02:00:08;27.83;;;20.08;;
16775;SDS011;8505;49.456;8.164;2022-08-19T02:02:38;29.00;;;20.88;;
16775;SDS011;8505;49.456;8.164;2022-08-19T02:05:09;31.45;;;20.83;;
16775;SDS011;8505;49.456;8.164;2022-08-19T02:07:38;30.20;;;21.50;;
16775;SDS011;8505;49.456;8.164;2022-08-19T02:10:09;29.85;;;21.23;;
16775;SDS011;8505;49.456;8.164;2022-08-19T02:12:41;29.02;;;20.75;;
16775;SDS011;8505;49.456;8.164;2022-08-19T02:15:09;32.10;;;22.02;;
16775;SDS011;8505;49.456;8.164;2022-08-19T02:17:38;26.90;;;20.52;;
16775;SDS011;8505;49.456;8.164;2022-08-19T02:20:07;32.53;;;20.73;;
16775;SDS011;8505;49.456;8.164;2022-08-19T02:22:36;27.52;;;20.27;;
16775;SDS011;8505;49.456;8.164;2022-08-19T02:25:08;28.48;;;19.98;;
16775;SDS011;8505;49.456;8.164;2022-08-19T02:27:36;27.77;;;21.40;;
16775;SDS011;8505;49.456;8.164;2022-08-19T02:30:04;31.80;;;21.85;;
16775;SDS011;8505;49.456;8.164;2022-08-19T02:32:39;27.85;;;19.85;;
16775;SDS011;8505;49.456;8.164;2022-08-19T02:35:10;26.83;;;18.92;;
16775;SDS011;8505;49.456;8.164;2022-08-19T02:37:39;27.73;;;19.73;;
16775;SDS011;8505;49.456;8.164;2022-08-19T02:40:26;24.40;;;18.75;;
16775;SDS011;8505;49.456;8.164;2022-08-19T02:42:54;26.38;;;19.60;;
16775;SDS011;8505;49.456;8.164;2022-08-19T02:45:22;28.23;;;20.40;;
16775;SDS011;8505;49.456;8.164;2022-08-19T02:47:50;30.38;;;21.38;;
16775;SDS011;8505;49.456;8.164;2022-08-19T02:50:18;28.83;;;19.83;;
16775;SDS011;8505;49.456;8.164;2022-08-19T02:52:45;28.67;;;21.00;;
16775;SDS011;8505;49.456;8.164;2022-08-19T02:55:13;29.85;;;20.23;;
16775;SDS011;8505;49.456;8.164;2022-08-19T02:57:42;25.98;;;19.88;;
16775;SDS011;8505;49.456;8.164;2022-08-19T03:00:10;28.90;;;20.02;;
16775;SDS011;8505;49.456;8.164;2022-08-19T03:02:39;30.48;;;19.83;;
16775;SDS011;8505;49.456;8.164;2022-08-19T03:05:07;26.70;;;20.48;;
16775;SDS011;8505;49.456;8.164;2022-08-19T03:07:36;27.70;;;20.13;;
16775;SDS011;8505;49.456;8.164;2022-08-19T03:10:05;27.50;;;19.73;;
16775;SDS011;8505;49.456;8.164;2022-08-19T03:12:35;26.73;;;18.92;;
16775;SDS011;8505;49.456;8.164;2022-08-19T03:15:07;29.23;;;19.90;;
16775;SDS011;8505;49.456;8.164;2022-08-19T03:17:35;28.77;;;19.75;;
16775;SDS011;8505;49.456;8.164;2022-08-19T03:20:04;26.50;;;19.25;;
16775;SDS011;8505;49.456;8.164;2022-08-19T03:22:32;25.77;;;19.15;;
16775;SDS011;8505;49.456;8.164;2022-08-19T03:24:59;26.10;;;18.27;;
16775;SDS011;8505;49.456;8.164;2022-08-19T03:27:27;26.98;;;18.88;;
16775;SDS011;8505;49.456;8.164;2022-08-19T03:30:00;24.40;;;18.13;;
16775;SDS011;8505;49.456;8.164;2022-08-19T03:32:29;27.20;;;18.83;;
16775;SDS011;8505;49.456;8.164;2022-08-19T03:34:58;26.77;;;19.30;;
16775;SDS011;8505;49.456;8.164;2022-08-19T03:37:26;23.23;;;17.63;;
16775;SDS011;8505;49.456;8.164;2022-08-19T03:39:54;23.95;;;18.55;;
16775;SDS011;8505;49.456;8.164;2022-08-19T03:42:22;26.27;;;18.25;;
16775;SDS011;8505;49.456;8.164;2022-08-19T03:45:03;25.83;;;18.55;;
16775;SDS011;8505;49.456;8.164;2022-08-19T03:47:35;24.83;;;17.65;;
16775;SDS011;8505;49.456;8.164;2022-08-19T03:50:04;23.77;;;17.25;;
16775;SDS011;8505;49.456;8.164;2022-08-19T03:52:32;22.23;;;17.48;;
16775;SDS011;8505;49.456;8.164;2022-08-19T03:55:00;22.23;;;17.50;;
16775;SDS011;8505;49.456;8.164;2022-08-19T03:57:27;22.67;;;17.50;;
16775;SDS011;8505;49.456;8.164;2022-08-19T03:59:57;24.00;;;16.80;;
16775;SDS011;8505;49.456;8.164;2022-08-19T04:02:40;25.15;;;18.10;;
16775;SDS011;8505;49.456;8.164;2022-08-19T04:05:25;24.35;;;18.50;;
16775;SDS011;8505;49.456;8.164;2022-08-19T04:07:54;25.35;;;18.25;;
16775;SDS011;8505;49.456;8.164;2022-08-19T04:10:25;26.35;;;18.38;;
16775;SDS011;8505;49.456;8.164;2022-08-19T04:12:53;24.70;;;18.08;;
16775;SDS011;8505;49.456;8.164;2022-08-19T04:15:21;24.92;;;17.63;;
16775;SDS011;8505;49.456;8.164;2022-08-19T04:17:50;20.77;;;16.20;;
16775;SDS011;8505;49.456;8.164;2022-08-19T04:20:18;22.15;;;16.73;;
16775;SDS011;8505;49.456;8.164;2022-08-19T04:22:45;25.13;;;17.10;;
16775;SDS011;8505;49.456;8.164;2022-08-19T04:25:13;22.52;;;16.95;;
16775;SDS011;8505;49.456;8.164;2022-08-19T04:27:41;23.10;;;17.13;;
16775;SDS011;8505;49.456;8.164;2022-08-19T04:30:12;22.75;;;16.20;;
16775;SDS011;8505;49.456;8.164;2022-08-19T04:32:41;21.20;;;15.20;;
16775;SDS011;8505;49.456;8.164;2022-08-19T04:35:11;21.83;;;15.48;;
16775;SDS011;8505;49.456;8.164;2022-08-19T04:37:43;22.75;;;16.95;;
16775;SDS011;8505;49.456;8.164;2022-08-19T04:40:11;23.80;;;16.88;;
16775;SDS011;8505;49.456;8.164;2022-08-19T04:42:56;21.85;;;15.85;;
16775;SDS011;8505;49.456;8.164;2022-08-19T04:45:24;21.75;;;17.63;;
16775;SDS011;8505;49.456;8.164;2022-08-19T04:47:54;23.20;;;16.30;;
16775;SDS011;8505;49.456;8.164;2022-08-19T04:50:44;21.85;;;16.52;;
16775;SDS011;8505;49.456;8.164;2022-08-19T04:53:12;23.33;;;15.80;;
16775;SDS011;8505;49.456;8.164;2022-08-19T04:55:40;21.55;;;16.35;;
16775;SDS011;8505;49.456;8.164;2022-08-19T04:58:09;22.80;;;16.33;;
16775;SDS011;8505;49.456;8.164;2022-08-19T05:00:37;22.15;;;15.73;;
16775;SDS011;8505;49.456;8.164;2022-08-19T05:03:05;22.67;;;14.65;;
16775;SDS011;8505;49.456;8.164;2022-08-19T05:05:33;20.33;;;14.75;;
16775;SDS011;8505;49.456;8.164;2022-08-19T05:08:12;21.85;;;15.07;;
16775;SDS011;8505;49.456;8.164;2022-08-19T05:10:56;21.27;;;14.77;;
16775;SDS011;8505;49.456;8.164;2022-08-19T05:13:24;20.67;;;15.23;;
16775;SDS011;8505;49.456;8.164;2022-08-19T05:15:53;22.65;;;15.43;;
16775;SDS011;8505;49.456;8.164;2022-08-19T05:18:22;20.92;;;15.20;;
16775;SDS011;8505;49.456;8.164;2022-08-19T05:21:08;20.40;;;14.60;;
16775;SDS011;8505;49.456;8.164;2022-08-19T05:23:55;18.40;;;14.52;;
16775;SDS011;8505;49.456;8.164;2022-08-19T05:26:23;18.42;;;14.32;;
16775;SDS011;8505;49.456;8.164;2022-08-19T05:28:52;20.65;;;14.80;;
16775;SDS011;8505;49.456;8.164;2022-08-19T05:31:20;19.73;;;15.00;;
16775;SDS011;8505;49.456;8.164;2022-08-19T05:33:48;17.77;;;13.43;;
16775;SDS011;8505;49.456;8.164;2022-08-19T05:36:16;20.35;;;14.98;;
16775;SDS011;8505;49.456;8.164;2022-08-19T05:38:45;22.40;;;15.20;;
16775;SDS011;8505;49.456;8.164;2022-08-19T05:41:17;20.42;;;14.77;;
16775;SDS011;8505;49.456;8.164;2022-08-19T05:43:45;18.25;;;14.63;;
16775;SDS011;8505;49.456;8.164;2022-08-19T05:46:15;24.27;;;15.73;;
16775;SDS011;8505;49.456;8.164;2022-08-19T05:48:53;18.85;;;14.65;;
16775;SDS011;8505;49.456;8.164;2022-08-19T05:51:22;20.23;;;15.13;;
16775;SDS011;8505;49.456;8.164;2022-08-19T05:53:54;21.13;;;14.40;;
16775;SDS011;8505;49.456;8.164;2022-08-19T05:56:23;18.35;;;14.50;;
16775;SDS011;8505;49.456;8.164;2022-08-19T05:58:51;17.95;;;14.10;;
16775;SDS011;8505;49.456;8.164;2022-08-19T06:01:20;20.30;;;14.73;;
16775;SDS011;8505;49.456;8.164;2022-08-19T06:03:48;18.73;;;12.93;;
16775;SDS011;8505;49.456;8.164;2022-08-19T06:06:16;17.60;;;14.32;;
16775;SDS011;8505;49.456;8.164;2022-08-19T06:08:44;18.42;;;14.60;;
16775;SDS011;8505;49.456;8.164;2022-08-19T06:11:18;16.52;;;13.85;;
16775;SDS011;8505;49.456;8.164;2022-08-19T06:13:50;20.75;;;14.45;;
16775;SDS011;8505;49.456;8.164;2022-08-19T06:16:25;17.20;;;13.90;;
16775;SDS011;8505;49.456;8.164;2022-08-19T06:18:54;18.85;;;13.60;;
16775;SDS011;8505;49.456;8.164;2022-08-19T06:21:25;19.90;;;12.88;;
16775;SDS011;8505;49.456;8.164;2022-08-19T06:23:55;19.45;;;13.32;;
16775;SDS011;8505;49.456;8.164;2022-08-19T06:26:23;17.80;;;13.90;;
16775;SDS011;8505;49.456;8.164;2022-08-19T06:28:52;17.05;;;13.80;;
16775;SDS011;8505;49.456;8.164;2022-08-19T06:31:21;18.60;;;14.50;;
16775;SDS011;8505;49.456;8.164;2022-08-19T06:33:51;16.13;;;13.10;;
16775;SDS011;8505;49.456;8.164;2022-08-19T06:36:20;16.20;;;12.63;;
16775;SDS011;8505;49.456;8.164;2022-08-19T06:38:53;18.55;;;13.52;;
16775;SDS011;8505;49.456;8.164;2022-08-19T06:41:22;17.13;;;13.20;;
16775;SDS011;8505;49.456;8.164;2022-08-19T06:43:49;15.32;;;12.35;;
16775;SDS011;8505;49.456;8.164;2022-08-19T06:46:23;16.55;;;13.05;;
16775;SDS011;8505;49.456;8.164;2022-08-19T06:48:52;15.48;;;12.13;;
16775;SDS011;8505;49.456;8.164;2022-08-19T06:51:20;18.50;;;12.40;;
16775;SDS011;8505;49.456;8.164;2022-08-19T06:53:50;16.90;;;12.50;;
16775;SDS011;8505;49.456;8.164;2022-08-19T06:56:22;16.17;;;12.30;;
16775;SDS011;8505;49.456;8.164;2022-08-19T06:59:00;17.65;;;12.23;;
16775;SDS011;8505;49.456;8.164;2022-08-19T07:01:29;15.65;;;12.38;;
16775;SDS011;8505;49.456;8.164;2022-08-19T07:03:57;16.92;;;11.98;;
16775;SDS011;8505;49.456;8.164;2022-08-19T07:06:26;18.05;;;12.38;;
16775;SDS011;8505;49.456;8.164;2022-08-19T07:09:10;14.35;;;11.15;;
16775;SDS011;8505;49.456;8.164;2022-08-19T07:11:44;15.98;;;11.02;;
16775;SDS011;8505;49.456;8.164;2022-08-19T07:14:13;13.20;;;11.13;;
16775;SDS011;8505;49.456;8.164;2022-08-19T07:16:46;15.15;;;10.73;;
16775;SDS011;8505;49.456;8.164;2022-08-19T07:19:16;16.45;;;10.90;;
16775;SDS011;8505;49.456;8.164;2022-08-19T07:21:46;15.48;;;10.80;;
16775;SDS011;8505;49.456;8.164;2022-08-19T07:24:16;14.38;;;10.82;;
16775;SDS011;8505;49.456;8.164;2022-08-19T07:26:44;15.07;;;11.38;;
16775;SDS011;8505;49.456;8.164;2022-08-19T07:29:17;16.77;;;11.10;;
16775;SDS011;8505;49.456;8.164;2022-08-19T07:31:52;15.52;;;11.05;;
16775;SDS011;8505;49.456;8.164;2022-08-19T07:34:22;14.18;;;10.25;;
16775;SDS011;8505;49.456;8.164;2022-08-19T07:36:52;15.15;;;11.13;;
16775;SDS011;8505;49.456;8.164;2022-08-19T07:39:22;18.80;;;11.32;;
16775;SDS011;8505;49.456;8.164;2022-08-19T07:41:52;18.35;;;11.68;;
16775;SDS011;8505;49.456;8.164;2022-08-19T07:44:19;20.65;;;11.68;;
16775;SDS011;8505;49.456;8.164;2022-08-19T07:46:52;14.65;;;10.82;;
16775;SDS011;8505;49.456;8.164;2022-08-19T07:49:23;14.25;;;10.43;;
16775;SDS011;8505;49.456;8.164;2022-08-19T07:51:52;13.85;;;10.27;;
16775;SDS011;8505;49.456;8.164;2022-08-19T07:54:22;13.70;;;9.52;;
16775;SDS011;8505;49.456;8.164;2022-08-19T07:56:51;15.77;;;9.80;;
16775;SDS011;8505;49.456;8.164;2022-08-19T07:59:19;16.58;;;8.93;;
16775;SDS011;8505;49.456;8.164;2022-08-19T08:01:48;12.38;;;8.57;;
16775;SDS011;8505;49.456;8.164;2022-08-19T08:04:18;15.32;;;10.27;;
16775;SDS011;8505;49.456;8.164;2022-08-19T08:07:04;14.43;;;9.35;;
16775;SDS011;8505;49.456;8.164;2022-08-19T08:09:56;13.13;;;9.60;;
16775;SDS011;8505;49.456;8.164;2022-08-19T08:12:30;18.35;;;11.55;;
16775;SDS011;8505;49.456;8.164;2022-08-19T08:15:01;14.32;;;10.65;;
16775;SDS011;8505;49.456;8.164;2022-08-19T08:17:37;12.35;;;8.80;;
16775;SDS011;8505;49.456;8.164;2022-08-19T08:20:18;18.02;;;11.82;;
16775;SDS011;8505;49.456;8.164;2022-08-19T08:22:46;14.88;;;10.57;;
16775;SDS011;8505;49.456;8.164;2022-08-19T08:25:32;14.07;;;9.80;;
16775;SDS011;8505;49.456;8.164;2022-08-19T08:28:01;13.10;;;10.10;;
16775;SDS011;8505;49.456;8.164;2022-08-19T08:30:30;13.75;;;9.05;;
16775;SDS011;8505;49.456;8.164;2022-08-19T08:32:59;12.13;;;9.90;;
16775;SDS011;8505;49.456;8.164;2022-08-19T08:35:29;11.70;;;8.88;;
16775;SDS011;8505;49.456;8.164;2022-08-19T08:37:57;15.18;;;9.20;;
16775;SDS011;8505;49.456;8.164;2022-08-19T08:40:27;14.27;;;9.63;;
16775;SDS011;8505;49.456;8.164;2022-08-19T08:42:57;12.75;;;9.85;;
16775;SDS011;8505;49.456;8.164;2022-08-19T08:45:38;13.68;;;10.23;;
16775;SDS011;8505;49.456;8.164;2022-08-19T08:48:20;13.85;;;9.77;;
16775;SDS011;8505;49.456;8.164;2022-08-19T08:50:53;15.02;;;10.27;;
16775;SDS011;8505;49.456;8.164;2022-08-19T08:53:23;12.70;;;9.70;;
16775;SDS011;8505;49.456;8.164;2022-08-19T08:55:55;14.98;;;11.93;;
16775;SDS011;8505;49.456;8.164;2022-08-19T08:58:24;14.77;;;11.30;;
16775;SDS011;8505;49.456;8.164;2022-08-19T09:00:56;16.75;;;11.13;;
16775;SDS011;8505;49.456;8.164;2022-08-19T09:03:25;14.82;;;10.90;;
16775;SDS011;8505;49.456;8.164;2022-08-19T09:06:00;14.60;;;10.60;;
16775;SDS011;8505;49.456;8.164;2022-08-19T09:08:39;14.38;;;9.27;;
16775;SDS011;8505;49.456;8.164;2022-08-19T09:11:21;12.10;;;9.68;;
16775;SDS011;8505;49.456;8.164;2022-08-19T09:14:10;17.42;;;10.57;;
16775;SDS011;8505;49.456;8.164;2022-08-19T09:17:12;15.00;;;11.52;;
16775;SDS011;8505;49.456;8.164;2022-08-19T09:19:48;14.15;;;10.15;;
16775;SDS011;8505;49.456;8.164;2022-08-19T09:22:20;16.20;;;9.85;;
16775;SDS011;8505;49.456;8.164;2022-08-19T09:24:51;13.05;;;11.30;;
16775;SDS011;8505;49.456;8.164;2022-08-19T09:27:20;11.93;;;8.40;;
16775;SDS011;8505;49.456;8.164;2022-08-19T09:30:09;17.13;;;12.57;;
16775;SDS011;8505;49.456;8.164;2022-08-19T09:32:39;16.25;;;10.65;;
16775;SDS011;8505;49.456;8.164;2022-08-19T09:35:08;10.70;;;8.98;;
16775;SDS011;8505;49.456;8.164;2022-08-19T09:37:38;12.90;;;9.63;;
16775;SDS011;8505;49.456;8.164;2022-08-19T09:40:09;13.25;;;9.40;;
16775;SDS011;8505;49.456;8.164;2022-08-19T09:42:38;12.85;;;9.48;;
16775;SDS011;8505;49.456;8.164;2022-08-19T09:45:17;11.80;;;9.30;;
16775;SDS011;8505;49.456;8.164;2022-08-19T09:47:48;10.45;;;8.10;;
16775;SDS011;8505;49.456;8.164;2022-08-19T09:50:19;9.73;;;7.60;;
16775;SDS011;8505;49.456;8.164;2022-08-19T09:52:48;11.98;;;7.47;;
16775;SDS011;8505;49.456;8.164;2022-08-19T09:55:23;10.77;;;8.70;;
16775;SDS011;8505;49.456;8.164;2022-08-19T09:57:56;11.65;;;8.57;;
16775;SDS011;8505;49.456;8.164;2022-08-19T10:00:24;12.23;;;7.65;;
16775;SDS011;8505;49.456;8.164;2022-08-19T10:02:52;12.15;;;8.38;;
16775;SDS011;8505;49.456;8.164;2022-08-19T10:05:20;10.93;;;7.95;;
16775;SDS011;8505;49.456;8.164;2022-08-19T10:08:09;9.57;;;7.82;;
16775;SDS011;8505;49.456;8.164;2022-08-19T10:10:39;10.45;;;7.78;;
16775;SDS011;8505;49.456;8.164;2022-08-19T10:13:11;9.40;;;7.38;;
16775;SDS011;8505;49.456;8.164;2022-08-19T10:15:39;14.23;;;9.23;;
16775;SDS011;8505;49.456;8.164;2022-08-19T10:18:14;16.35;;;11.10;;
16775;SDS011;8505;49.456;8.164;2022-08-19T10:20:42;12.55;;;10.85;;
16775;SDS011;8505;49.456;8.164;2022-08-19T10:23:18;12.40;;;9.07;;
16775;SDS011;8505;49.456;8.164;2022-08-19T10:25:47;7.13;;;6.05;;
16775;SDS011;8505;49.456;8.164;2022-08-19T10:28:16;9.55;;;7.15;;
16775;SDS011;8505;49.456;8.164;2022-08-19T10:30:44;11.35;;;8.32;;
16775;SDS011;8505;49.456;8.164;2022-08-19T10:33:13;10.68;;;7.90;;
16775;SDS011;8505;49.456;8.164;2022-08-19T10:36:01;12.05;;;8.93;;
16775;SDS011;8505;49.456;8.164;2022-08-19T10:38:32;9.75;;;8.15;;
16775;SDS011;8505;49.456;8.164;2022-08-19T10:41:06;15.98;;;9.38;;
16775;SDS011;8505;49.456;8.164;2022-08-19T10:43:34;12.82;;;8.55;;
16775;SDS011;8505;49.456;8.164;2022-08-19T10:46:04;12.45;;;8.40;;
16775;SDS011;8505;49.456;8.164;2022-08-19T10:48:39;10.65;;;7.22;;
16775;SDS011;8505;49.456;8.164;2022-08-19T10:51:07;8.18;;;7.30;;
16775;SDS011;8505;49.456;8.164;2022-08-19T10:53:54;7.80;;;7.00;;
16775;SDS011;8505;49.456;8.164;2022-08-19T10:56:24;10.57;;;7.78;;
16775;SDS011;8505;49.456;8.164;2022-08-19T10:59:10;9.65;;;7.63;;
16775;SDS011;8505;49.456;8.164;2022-08-19T11:01:40;11.20;;;8.15;;
16775;SDS011;8505;49.456;8.164;2022-08-19T11:04:09;11.07;;;8.48;;
16775;SDS011;8505;49.456;8.164;2022-08-19T11:06:39;9.45;;;8.43;;
16775;SDS011;8505;49.456;8.164;2022-08-19T11:09:10;9.68;;;7.90;;
16775;SDS011;8505;49.456;8.164;2022-08-19T11:11:39;9.90;;;8.65;;
16775;SDS011;8505;49.456;8.164;2022-08-19T11:14:08;7.90;;;7.10;;
16775;SDS011;8505;49.456;8.164;2022-08-19T11:16:37;10.85;;;7.78;;
16775;SDS011;8505;49.456;8.164;2022-08-19T11:19:05;8.68;;;6.88;;
16775;SDS011;8505;49.456;8.164;2022-08-19T11:21:35;9.73;;;7.68;;
16775;SDS011;8505;49.456;8.164;2022-08-19T11:24:06;10.20;;;7.90;;
16775;SDS011;8505;49.456;8.164;2022-08-19T11:26:37;9.15;;;7.30;;
16775;SDS011;8505;49.456;8.164;2022-08-19T11:29:06;18.17;;;9.02;;
16775;SDS011;8505;49.456;8.164;2022-08-19T11:31:37;10.05;;;7.00;;
16775;SDS011;8505;49.456;8.164;2022-08-19T11:34:08;8.38;;;6.22;;
16775;SDS011;8505;49.456;8.164;2022-08-19T11:36:38;7.20;;;6.10;;
16775;SDS011;8505;49.456;8.164;2022-08-19T11:39:07;6.55;;;5.82;;
16775;SDS011;8505;49.456;8.164;2022-08-19T11:41:38;6.70;;;6.00;;
16775;SDS011;8505;49.456;8.164;2022-08-19T11:44:06;6.82;;;5.75;;
16775;SDS011;8505;49.456;8.164;2022-08-19T11:46:35;7.70;;;5.50;;
16775;SDS011;8505;49.456;8.164;2022-08-19T11:49:04;7.45;;;5.10;;
16775;SDS011;8505;49.456;8.164;2022-08-19T11:51:39;7.65;;;5.10;;
16775;SDS011;8505;49.456;8.164;2022-08-19T11:54:08;5.68;;;4.90;;
16775;SDS011;8505;49.456;8.164;2022-08-19T11:56:37;7.05;;;5.60;;
16775;SDS011;8505;49.456;8.164;2022-08-19T11:59:06;7.03;;;5.15;;
16775;SDS011;8505;49.456;8.164;2022-08-19T12:01:39;6.20;;;4.78;;
16775;SDS011;8505;49.456;8.164;2022-08-19T12:04:09;5.60;;;4.30;;
16775;SDS011;8505;49.456;8.164;2022-08-19T12:06:38;6.88;;;4.25;;
16775;SDS011;8505;49.456;8.164;2022-08-19T12:09:07;5.32;;;3.90;;
16775;SDS011;8505;49.456;8.164;2022-08-19T12:11:37;4.28;;;3.67;;
16775;SDS011;8505;49.456;8.164;2022-08-19T12:14:08;6.47;;;4.13;;
16775;SDS011;8505;49.456;8.164;2022-08-19T12:16:43;4.18;;;3.72;;
16775;SDS011;8505;49.456;8.164;2022-08-19T12:19:17;4.28;;;3.88;;
16775;SDS011;8505;49.456;8.164;2022-08-19T12:21:47;4.65;;;3.53;;
16775;SDS011;8505;49.456;8.164;2022-08-19T12:24:16;4.40;;;3.70;;
16775;SDS011;8505;49.456;8.164;2022-08-19T12:26:50;6.32;;;3.67;;
16775;SDS011;8505;49.456;8.164;2022-08-19T12:29:20;6.35;;;3.50;;
16775;SDS011;8505;49.456;8.164;2022-08-19T12:31:56;4.18;;;3.78;;
16775;SDS011;8505;49.456;8.164;2022-08-19T12:34:27;3.83;;;3.25;;
16775;SDS011;8505;49.456;8.164;2022-08-19T12:36:57;5.22;;;3.50;;
16775;SDS011;8505;49.456;8.164;2022-08-19T12:39:24;3.70;;;3.40;;
16775;SDS011;8505;49.456;8.164;2022-08-19T12:41:54;4.90;;;3.38;;
16775;SDS011;8505;49.456;8.164;2022-08-19T12:44:22;3.70;;;3.05;;
16775;SDS011;8505;49.456;8.164;2022-08-19T12:46:54;4.68;;;3.17;;
16775;SDS011;8505;49.456;8.164;2022-08-19T12:49:22;3.75;;;3.17;;
16775;SDS011;8505;49.456;8.164;2022-08-19T12:52:11;4.22;;;3.00;;
16775;SDS011;8505;49.456;8.164;2022-08-19T12:54:41;5.78;;;3.65;;
16775;SDS011;8505;49.456;8.164;2022-08-19T12:57:11;6.60;;;3.10;;
16775;SDS011;8505;49.456;8.164;2022-08-19T12:59:39;3.88;;;2.97;;
16775;SDS011;8505;49.456;8.164;2022-08-19T13:02:07;4.47;;;3.00;;
16775;SDS011;8505;49.456;8.164;2022-08-19T13:04:35;6.82;;;3.20;;
16775;SDS011;8505;49.456;8.164;2022-08-19T13:07:06;3.25;;;2.90;;
16775;SDS011;8505;49.456;8.164;2022-08-19T13:09:35;3.30;;;3.00;;
16775;SDS011;8505;49.456;8.164;2022-08-19T13:12:03;3.85;;;3.05;;
16775;SDS011;8505;49.456;8.164;2022-08-19T13:14:35;4.00;;;3.00;;
16775;SDS011;8505;49.456;8.164;2022-08-19T13:17:04;4.60;;;3.20;;
16775;SDS011;8505;49.456;8.164;2022-08-19T13:19:32;3.33;;;2.90;;
16775;SDS011;8505;49.456;8.164;2022-08-19T13:22:00;2.92;;;2.63;;
16775;SDS011;8505;49.456;8.164;2022-08-19T13:24:27;3.28;;;2.88;;
16775;SDS011;8505;49.456;8.164;2022-08-19T13:26:59;3.10;;;2.78;;
16775;SDS011;8505;49.456;8.164;2022-08-19T13:29:27;4.68;;;3.13;;
16775;SDS011;8505;49.456;8.164;2022-08-19T13:32:14;4.60;;;3.20;;
16775;SDS011;8505;49.456;8.164;2022-08-19T13:35:00;3.58;;;3.20;;
16775;SDS011;8505;49.456;8.164;2022-08-19T13:37:28;4.20;;;3.20;;
16775;SDS011;8505;49.456;8.164;2022-08-19T13:40:09;5.00;;;3.00;;
16775;SDS011;8505;49.456;8.164;2022-08-19T13:42:39;3.88;;;3.33;;
16775;SDS011;8505;49.456;8.164;2022-08-19T13:45:07;3.95;;;3.55;;
16775;SDS011;8505;49.456;8.164;2022-08-19T13:47:38;4.60;;;3.50;;
16775;SDS011;8505;49.456;8.164;2022-08-19T13:50:10;6.18;;;3.40;;
16775;SDS011;8505;49.456;8.164;2022-08-19T13:52:39;4.43;;;3.80;;
16775;SDS011;8505;49.456;8.164;2022-08-19T13:55:08;3.80;;;3.40;;
16775;SDS011;8505;49.456;8.164;2022-08-19T13:57:38;4.40;;;3.22;;
16775;SDS011;8505;49.456;8.164;2022-08-19T14:00:07;7.93;;;3.85;;
16775;SDS011;8505;49.456;8.164;2022-08-19T14:02:38;4.95;;;3.15;;
16775;SDS011;8505;49.456;8.164;2022-08-19T14:05:08;4.68;;;3.20;;
16775;SDS011;8505;49.456;8.164;2022-08-19T14:07:38;3.80;;;3.50;;
16775;SDS011;8505;49.456;8.164;2022-08-19T14:10:08;4.80;;;3.53;;
16775;SDS011;8505;49.456;8.164;2022-08-19T14:12:37;5.25;;;3.50;;
16775;SDS011;8505;49.456;8.164;2022-08-19T14:15:07;5.47;;;3.63;;
16775;SDS011;8505;49.456;8.164;2022-08-19T14:17:38;4.85;;;3.72;;
16775;SDS011;8505;49.456;8.164;2022-08-19T14:20:08;3.80;;;3.50;;
16775;SDS011;8505;49.456;8.164;2022-08-19T14:22:43;5.78;;;3.72;;
16775;SDS011;8505;49.456;8.164;2022-08-19T14:25:13;4.00;;;3.60;;
16775;SDS011;8505;49.456;8.164;2022-08-19T14:27:44;5.35;;;4.13;;
16775;SDS011;8505;49.456;8.164;2022-08-19T14:30:13;5.40;;;3.90;;
16775;SDS011;8505;49.456;8.164;2022-08-19T14:32:44;4.47;;;3.60;;
16775;SDS011;8505;49.456;8.164;2022-08-19T14:35:12;4.63;;;3.53;;
16775;SDS011;8505;49.456;8.164;2022-08-19T14:37:41;4.38;;;3.72;;
16775;SDS011;8505;49.456;8.164;2022-08-19T14:40:12;4.10;;;3.70;;
16775;SDS011;8505;49.456;8.164;2022-08-19T14:42:40;7.30;;;4.03;;
16775;SDS011;8505;49.456;8.164;2022-08-19T14:45:09;5.65;;;3.60;;
16775;SDS011;8505;49.456;8.164;2022-08-19T14:47:38;4.95;;;3.95;;
16775;SDS011;8505;49.456;8.164;2022-08-19T14:50:09;6.13;;;3.85;;
16775;SDS011;8505;49.456;8.164;2022-08-19T14:52:43;6.72;;;3.80;;
16775;SDS011;8505;49.456;8.164;2022-08-19T14:55:11;4.47;;;3.80;;
16775;SDS011;8505;49.456;8.164;2022-08-19T14:57:40;5.93;;;4.10;;
16775;SDS011;8505;49.456;8.164;2022-08-19T15:00:09;4.25;;;3.70;;
16775;SDS011;8505;49.456;8.164;2022-08-19T15:02:39;4.22;;;3.80;;
16775;SDS011;8505;49.456;8.164;2022-08-19T15:05:08;5.80;;;4.00;;
16775;SDS011;8505;49.456;8.164;2022-08-19T15:07:36;4.38;;;3.95;;